Time;durP1;ratioP1;P1;durP2;ratioP2;P2;SDS_P1;SDS_P2;PMS_P1;PMS_P2;Temp;Humidity;BMP_temperature;BMP_pressure;BME280_temperature;BME280_humidity;BME280_pressure;Samples;Min_cycle;Max_cycle;Signal;HPM_P1;HPM_P2
2022/09/24 00:00:00;;;;;;;6.43;5.07;;;10.60;99.90;;;;;;5033644;28;20641;-69
2022/09/24 00:02:31;;;;;;;7.10;5.33;;;10.60;99.90;;;;;;5033629;28;20188;-70
2022/09/24 00:05:00;;;;;;;6.97;4.87;;;10.60;99.90;;;;;;5033493;28;20411;-69
2022/09/24 00:07:28;;;;;;;6.00;4.90;;;10.60;99.90;;;;;;5033423;28;20569;-69
2022/09/24 00:09:59;;;;;;;7.33;5.23;;;10.60;99.90;;;;;;5033348;28;20193;-69
2022/09/24 00:12:27;;;;;;;7.03;5.13;;;10.60;99.90;;;;;;5033689;28;20189;-69
2022/09/24 00:14:56;;;;;;;7.43;4.77;;;10.60;99.90;;;;;;5033336;28;20220;-69
2022/09/24 00:17:24;;;;;;;5.50;4.67;;;10.60;99.90;;;;;;5033231;28;20196;-69
2022/09/24 00:19:53;;;;;;;6.17;5.00;;;10.60;99.90;;;;;;5032880;28;20223;-69
2022/09/24 00:22:22;;;;;;;9.00;4.70;;;10.60;99.90;;;;;;5033180;28;20192;-69
2022/09/24 00:27:38;;;;;;;5.70;5.10;;;10.60;99.90;;;;;;5033055;28;20180;-69
2022/09/24 00:30:07;;;;;;;9.40;4.80;;;10.60;99.90;;;;;;5033398;28;20203;-69
2022/09/24 00:32:36;;;;;;;9.47;4.97;;;10.60;99.90;;;;;;5032967;28;20204;-69
2022/09/24 00:35:05;;;;;;;6.03;5.00;;;10.60;99.90;;;;;;5032936;28;20212;-70
2022/09/24 00:37:34;;;;;;;7.03;4.90;;;10.50;99.90;;;;;;5032954;28;20199;-69
2022/09/24 00:40:02;;;;;;;8.43;5.10;;;10.50;99.90;;;;;;5032667;28;20192;-69
2022/09/24 00:42:31;;;;;;;6.53;4.90;;;10.60;99.90;;;;;;5032493;28;20191;-68
2022/09/24 00:45:03;;;;;;;7.70;5.10;;;10.50;99.90;;;;;;5032826;28;20216;-70
2022/09/24 00:47:35;;;;;;;9.10;5.20;;;10.60;99.90;;;;;;5032850;28;20663;-70
2022/09/24 00:50:12;;;;;;;8.27;5.10;;;10.60;99.90;;;;;;5032704;28;20216;-70
2022/09/24 00:52:45;;;;;;;6.97;5.33;;;10.50;99.90;;;;;;5032866;28;20184;-70
2022/09/24 00:55:14;;;;;;;7.57;5.07;;;10.50;99.90;;;;;;5032691;28;20220;-69
2022/09/24 00:57:44;;;;;;;8.00;5.30;;;10.50;99.90;;;;;;5032593;28;20199;-70
2022/09/24 01:00:15;;;;;;;6.77;4.83;;;10.50;99.90;;;;;;5032549;28;20718;-69
2022/09/24 01:02:47;;;;;;;9.90;4.97;;;10.50;99.90;;;;;;5032562;28;20347;-69
2022/09/24 01:05:16;;;;;;;8.70;5.15;;;10.50;99.90;;;;;;5032510;28;20224;-70
2022/09/24 01:07:47;;;;;;;10.03;5.50;;;10.50;99.90;;;;;;5032456;28;20197;-70
2022/09/24 01:10:46;;;;;;;7.13;4.90;;;10.50;99.90;;;;;;5032574;28;20228;-70
2022/09/24 01:13:14;;;;;;;9.00;5.57;;;10.40;99.90;;;;;;5032415;28;20200;-70
2022/09/24 01:15:49;;;;;;;9.80;4.53;;;10.50;99.90;;;;;;5032411;28;20212;-70
2022/09/24 01:18:30;;;;;;;7.43;4.93;;;10.40;99.90;;;;;;5032335;28;20659;-69
2022/09/24 01:21:18;;;;;;;9.37;4.70;;;10.40;99.90;;;;;;5031984;28;20219;-70
2022/09/24 01:24:08;;;;;;;7.73;5.43;;;10.30;99.90;;;;;;5032147;28;20217;-69
2022/09/24 01:26:51;;;;;;;12.67;11.07;;;10.40;99.90;;;;;;5015254;28;20209;-71
2022/09/24 01:29:46;;;;;;;15.13;12.03;;;10.40;99.90;;;;;;5012037;28;20251;-70
2022/09/24 01:32:19;;;;;;;13.57;11.63;;;10.40;99.90;;;;;;5012714;28;20213;-72
2022/09/24 01:34:51;;;;;;;12.70;10.77;;;10.40;99.90;;;;;;5012040;28;20228;-71
2022/09/24 01:37:24;;;;;;;9.70;8.73;;;10.40;99.90;;;;;;5012413;28;20568;-70
2022/09/24 01:39:56;;;;;;;9.00;7.23;;;10.40;99.90;;;;;;5012367;28;20216;-69
2022/09/24 01:42:27;;;;;;;8.63;7.80;;;10.40;99.90;;;;;;5012619;28;20673;-70
2022/09/24 01:44:58;;;;;;;9.23;7.87;;;10.40;99.90;;;;;;5011826;28;20237;-71
2022/09/24 01:47:31;;;;;;;8.10;5.77;;;10.40;99.90;;;;;;5012243;28;20204;-71
2022/09/24 01:50:04;;;;;;;10.30;5.83;;;10.40;99.90;;;;;;5012732;28;20243;-70
2022/09/24 01:52:38;;;;;;;8.07;5.60;;;10.40;99.90;;;;;;5014045;28;20537;-71
2022/09/24 01:55:10;;;;;;;6.53;5.67;;;10.30;99.90;;;;;;5015840;28;20232;-72
2022/09/24 01:57:42;;;;;;;9.37;5.20;;;10.40;99.90;;;;;;5016359;28;20217;-69
2022/09/24 02:00:15;;;;;;;7.27;5.67;;;10.30;99.90;;;;;;5016334;28;20604;-71
2022/09/24 02:02:47;;;;;;;9.07;5.53;;;10.30;99.90;;;;;;5016285;28;20201;-71
2022/09/24 02:05:23;;;;;;;6.43;4.67;;;10.30;99.90;;;;;;5016000;28;20247;-71
2022/09/24 02:07:58;;;;;;;7.07;5.43;;;10.30;99.90;;;;;;5015657;28;20215;-71
2022/09/24 02:10:31;;;;;;;7.90;4.80;;;10.30;99.90;;;;;;5016440;28;20231;-71
2022/09/24 02:13:05;;;;;;;5.80;4.90;;;10.20;99.90;;;;;;5015524;28;20208;-71
2022/09/24 02:15:39;;;;;;;6.37;4.80;;;10.20;99.90;;;;;;5015986;28;20221;-71
2022/09/24 02:18:10;;;;;;;7.07;4.63;;;10.30;99.90;;;;;;5015674;28;20208;-71
2022/09/24 02:20:42;;;;;;;10.57;5.50;;;10.20;99.90;;;;;;5015503;28;20561;-69
2022/09/24 02:23:13;;;;;;;8.57;5.47;;;10.20;99.90;;;;;;5015559;28;20212;-70
2022/09/24 02:25:47;;;;;;;9.47;5.73;;;10.20;99.90;;;;;;5015220;28;20598;-70
2022/09/24 02:28:16;;;;;;;7.73;5.50;;;10.10;99.90;;;;;;5015473;28;20212;-70
2022/09/24 02:30:51;;;;;;;7.37;5.60;;;10.20;99.90;;;;;;5015436;28;20244;-69
2022/09/24 02:36:09;;;;;;;6.67;5.33;;;10.10;99.90;;;;;;5015039;28;20205;-68
2022/09/24 02:38:39;;;;;;;6.37;4.90;;;10.10;99.90;;;;;;5015315;28;20201;-69
2022/09/24 02:41:07;;;;;;;5.73;4.43;;;10.10;99.90;;;;;;5015108;28;20224;-68
2022/09/24 02:43:36;;;;;;;8.37;5.13;;;10.10;99.90;;;;;;5015439;28;20201;-69
2022/09/24 02:46:08;;;;;;;7.63;4.90;;;10.10;99.90;;;;;;5015469;28;20201;-69
2022/09/24 02:48:37;;;;;;;9.03;5.17;;;10.00;99.90;;;;;;5015051;28;20209;-70
2022/09/24 02:51:06;;;;;;;7.03;4.73;;;10.00;99.90;;;;;;5014913;28;20232;-72
2022/09/24 02:53:35;;;;;;;7.57;4.97;;;10.00;99.90;;;;;;5015656;28;20205;-70
2022/09/24 02:56:04;;;;;;;10.53;6.00;;;10.00;99.90;;;;;;5014832;28;20209;-71
2022/09/24 02:58:34;;;;;;;9.57;5.83;;;10.00;99.90;;;;;;5014983;28;20217;-71
2022/09/24 03:01:03;;;;;;;8.47;6.80;;;10.00;99.90;;;;;;5014590;28;20213;-72
2022/09/24 03:03:33;;;;;;;12.93;5.70;;;10.00;99.90;;;;;;5013496;28;20573;-71
2022/09/24 03:06:01;;;;;;;7.87;4.97;;;10.00;99.90;;;;;;5014820;28;20201;-71
2022/09/24 03:08:31;;;;;;;7.50;4.80;;;10.00;99.90;;;;;;5014998;28;20599;-70
2022/09/24 03:11:00;;;;;;;5.60;4.77;;;10.00;99.90;;;;;;5014580;28;20233;-70
2022/09/24 03:13:29;;;;;;;6.17;4.73;;;10.00;99.90;;;;;;5014364;28;20208;-69
2022/09/24 03:15:57;;;;;;;7.23;5.40;;;10.00;99.90;;;;;;5014832;28;20205;-70
2022/09/24 03:18:26;;;;;;;7.97;4.67;;;10.00;99.90;;;;;;5014558;28;20565;-71
2022/09/24 03:20:57;;;;;;;6.30;5.10;;;10.00;99.90;;;;;;5014802;28;20201;-69
2022/09/24 03:23:26;;;;;;;8.37;5.47;;;10.00;99.90;;;;;;5014318;28;20715;-69
2022/09/24 03:25:54;;;;;;;7.63;5.20;;;10.00;99.90;;;;;;5014722;28;20208;-71
2022/09/24 03:28:27;;;;;;;8.83;5.10;;;10.00;99.90;;;;;;5014392;28;20665;-68
2022/09/24 03:31:00;;;;;;;11.17;5.20;;;10.00;99.90;;;;;;5014479;28;20237;-68
2022/09/24 03:33:32;;;;;;;8.37;6.40;;;10.00;99.90;;;;;;5014547;28;20212;-69
2022/09/24 03:36:04;;;;;;;7.83;5.07;;;9.90;99.90;;;;;;5014207;28;20212;-69
2022/09/24 03:38:34;;;;;;;7.97;5.17;;;10.00;99.90;;;;;;5014664;28;20220;-69
2022/09/24 03:41:04;;;;;;;7.20;5.13;;;10.00;99.90;;;;;;5029744;23;20198;-66
2022/09/24 03:43:33;;;;;;;12.43;5.40;;;10.00;99.90;;;;;;5052383;28;20224;-67
2022/09/24 03:46:02;;;;;;;11.10;5.30;;;10.10;99.90;;;;;;5053482;28;20211;-67
2022/09/24 03:48:30;;;;;;;8.50;5.20;;;10.10;99.90;;;;;;5053303;28;20196;-67
2022/09/24 03:51:04;;;;;;;7.73;5.50;;;10.00;99.90;;;;;;5053545;28;20232;-67
2022/09/24 03:53:33;;;;;;;5.73;5.13;;;10.00;99.90;;;;;;5052970;28;20199;-66
2022/09/24 03:56:04;;;;;;;6.00;5.30;;;10.00;99.90;;;;;;5053637;28;20204;-65
2022/09/24 03:58:34;;;;;;;8.37;5.63;;;10.00;99.90;;;;;;5053206;28;20214;-66
2022/09/24 04:01:04;;;;;;;6.40;5.37;;;9.90;99.90;;;;;;5053372;28;20207;-63
2022/09/24 04:03:32;;;;;;;7.40;5.67;;;10.00;99.90;;;;;;5052982;28;20208;-65
2022/09/24 04:06:02;;;;;;;8.87;5.27;;;9.90;99.90;;;;;;5053006;28;20195;-65
2022/09/24 04:08:31;;;;;;;7.70;5.50;;;9.90;99.90;;;;;;5053174;28;20206;-65
2022/09/24 04:11:00;;;;;;;6.87;5.00;;;9.90;99.90;;;;;;5052497;28;20607;-66
2022/09/24 04:13:29;;;;;;;6.87;5.40;;;9.90;99.90;;;;;;5053027;28;20204;-65
2022/09/24 04:16:01;;;;;;;7.57;5.80;;;9.90;99.90;;;;;;5052154;28;20640;-65
2022/09/24 04:18:30;;;;;;;6.30;5.40;;;9.90;99.90;;;;;;5052818;28;20216;-65
2022/09/24 04:21:07;;;;;;;6.60;5.20;;;9.90;99.90;;;;;;5053042;28;20219;-65
2022/09/24 04:23:36;;;;;;;6.80;5.20;;;9.80;99.90;;;;;;5052903;28;20321;-65
2022/09/24 04:26:04;;;;;;;8.83;5.73;;;9.80;99.90;;;;;;5053127;28;20195;-65
2022/09/24 04:28:33;;;;;;;9.53;5.33;;;9.80;99.90;;;;;;5053037;28;20184;-65
2022/09/24 04:31:02;;;;;;;8.70;5.17;;;9.80;99.90;;;;;;5052836;28;20722;-64
2022/09/24 04:33:30;;;;;;;7.77;5.20;;;9.80;99.90;;;;;;5052838;28;20207;-65
2022/09/24 04:35:59;;;;;;;8.00;5.23;;;9.70;99.90;;;;;;5052920;28;20192;-64
2022/09/24 04:38:29;;;;;;;8.70;5.63;;;9.70;99.90;;;;;;5052321;28;20204;-65
2022/09/24 04:41:05;;;;;;;9.80;5.33;;;9.70;99.90;;;;;;5052066;28;20210;-65
2022/09/24 04:43:34;;;;;;;6.70;4.93;;;9.70;99.90;;;;;;5052424;28;20218;-65
2022/09/24 04:46:03;;;;;;;5.73;4.63;;;9.70;99.90;;;;;;5052465;28;20204;-66
2022/09/24 04:48:33;;;;;;;8.20;4.73;;;9.70;99.90;;;;;;5052732;28;20203;-62
2022/09/24 04:51:02;;;;;;;8.17;5.33;;;9.70;99.90;;;;;;5052137;28;20239;-65
2022/09/24 04:53:32;;;;;;;7.13;4.80;;;9.60;99.90;;;;;;5052527;28;20195;-63
2022/09/24 04:56:01;;;;;;;11.57;5.20;;;9.60;99.90;;;;;;5052568;28;20188;-65
2022/09/24 04:58:30;;;;;;;8.70;5.23;;;9.60;99.90;;;;;;5052518;28;20192;-63
2022/09/24 05:01:02;;;;;;;6.80;5.43;;;9.60;99.90;;;;;;5052495;28;20200;-65
2022/09/24 05:03:32;;;;;;;6.07;5.03;;;9.50;99.90;;;;;;5052279;28;20204;-64
2022/09/24 05:06:01;;;;;;;7.83;5.53;;;9.50;99.90;;;;;;5052426;28;20200;-66
2022/09/24 05:08:29;;;;;;;11.03;5.60;;;9.50;99.90;;;;;;5051484;28;20207;-65
2022/09/24 05:11:01;;;;;;;9.07;4.97;;;9.50;99.90;;;;;;5051884;28;20202;-65
2022/09/24 05:13:29;;;;;;;6.70;5.40;;;9.50;99.90;;;;;;5052270;28;20192;-64
2022/09/24 05:15:59;;;;;;;7.77;4.80;;;9.50;99.90;;;;;;5052299;28;20686;-66
2022/09/24 05:18:28;;;;;;;6.50;4.80;;;9.40;99.90;;;;;;5052014;28;20592;-68
2022/09/24 05:20:57;;;;;;;7.43;4.63;;;9.40;99.90;;;;;;5052220;28;20214;-69
2022/09/24 05:23:25;;;;;;;8.67;5.67;;;9.40;99.90;;;;;;5052198;28;20191;-68
2022/09/24 05:28:42;;;;;;;9.30;5.50;;;9.30;99.90;;;;;;5051918;28;20195;-68
2022/09/24 05:31:10;;;;;;;6.77;5.17;;;9.40;99.90;;;;;;5051305;28;20204;-68
2022/09/24 05:33:39;;;;;;;6.77;5.70;;;9.30;99.90;;;;;;5051487;28;20207;-68
2022/09/24 05:36:08;;;;;;;7.40;4.87;;;9.30;99.90;;;;;;5052122;28;20201;-68
2022/09/24 05:38:36;;;;;;;7.93;5.70;;;9.30;99.90;;;;;;5052067;28;20196;-68
2022/09/24 05:41:09;;;;;;;9.93;5.87;;;9.30;99.90;;;;;;5051937;28;20188;-68
2022/09/24 05:43:38;;;;;;;7.40;5.53;;;9.30;99.90;;;;;;5051996;28;20207;-68
2022/09/24 05:46:08;;;;;;;8.00;5.90;;;9.30;99.90;;;;;;5050917;28;20712;-68
2022/09/24 05:48:37;;;;;;;8.33;5.23;;;9.30;99.90;;;;;;5052013;28;20192;-68
2022/09/24 05:51:06;;;;;;;11.17;5.80;;;9.30;99.90;;;;;;5052003;28;20199;-68
2022/09/24 05:53:35;;;;;;;8.23;5.83;;;9.30;99.90;;;;;;5051411;28;20231;-68
2022/09/24 05:56:03;;;;;;;7.27;5.50;;;9.30;99.90;;;;;;5051990;28;20192;-68
2022/09/24 05:58:32;;;;;;;10.20;6.53;;;9.30;99.90;;;;;;5051964;28;20195;-67
2022/09/24 06:01:01;;;;;;;20.10;12.93;;;9.30;99.90;;;;;;5051877;28;20199;-68
2022/09/24 06:03:31;;;;;;;56.47;36.80;;;9.30;99.90;;;;;;5051971;28;20215;-67
2022/09/24 06:06:00;;;;;;;23.13;17.10;;;9.40;99.90;;;;;;5051832;28;20675;-68
2022/09/24 06:08:31;;;;;;;14.47;10.73;;;9.40;99.90;;;;;;5051756;28;20199;-68
2022/09/24 06:11:01;;;;;;;13.43;8.60;;;9.40;99.90;;;;;;5051756;28;20177;-68
2022/09/24 06:13:30;;;;;;;13.27;8.33;;;9.40;99.90;;;;;;5051686;28;20562;-68
2022/09/24 06:16:03;;;;;;;8.77;6.77;;;9.40;99.90;;;;;;5051822;28;20195;-68
2022/09/24 06:18:35;;;;;;;9.90;6.90;;;9.40;99.90;;;;;;5051739;28;20207;-68
2022/09/24 06:21:05;;;;;;;9.70;8.27;;;9.40;99.90;;;;;;5051819;28;20192;-68
2022/09/24 06:23:34;;;;;;;11.57;6.83;;;9.50;99.90;;;;;;5051762;28;20664;-68
2022/09/24 06:26:06;;;;;;;8.77;6.97;;;9.50;99.90;;;;;;5051708;28;20188;-68
2022/09/24 06:28:35;;;;;;;8.23;6.17;;;9.50;99.90;;;;;;5051767;28;20184;-68
2022/09/24 06:31:05;;;;;;;8.97;7.33;;;9.50;99.90;;;;;;5051673;28;20196;-68
2022/09/24 06:33:36;;;;;;;10.47;7.43;;;9.60;99.90;;;;;;5051496;28;20592;-68
2022/09/24 06:36:05;;;;;;;13.00;9.87;;;9.60;99.90;;;;;;5051642;28;20189;-68
2022/09/24 06:38:35;;;;;;;10.53;7.77;;;9.70;99.90;;;;;;5051738;28;20184;-67
2022/09/24 06:41:05;;;;;;;8.57;6.40;;;9.70;99.90;;;;;;5055173;28;20601;-68
2022/09/24 06:43:34;;;;;;;9.47;7.63;;;9.80;99.90;;;;;;5054938;28;20200;-68
2022/09/24 06:46:03;;;;;;;10.23;8.40;;;9.80;99.90;;;;;;5055048;28;20191;-68
2022/09/24 06:48:32;;;;;;;15.47;9.53;;;9.90;99.90;;;;;;5055051;28;20199;-68
2022/09/24 06:51:04;;;;;;;10.07;8.67;;;10.00;99.90;;;;;;5054858;28;20211;-68
2022/09/24 06:53:33;;;;;;;11.93;8.87;;;10.10;99.90;;;;;;5054753;28;20215;-68
2022/09/24 06:56:02;;;;;;;17.87;10.20;;;10.10;99.90;;;;;;5054783;28;20196;-68
2022/09/24 06:58:31;;;;;;;13.47;9.00;;;10.20;99.90;;;;;;5054255;28;20204;-68
2022/09/24 07:01:01;;;;;;;10.33;8.27;;;10.30;99.90;;;;;;5054710;28;20395;-67
2022/09/24 07:03:32;;;;;;;12.37;8.43;;;10.30;99.90;;;;;;5054707;28;20185;-68
2022/09/24 07:06:04;;;;;;;23.97;15.17;;;10.40;99.90;;;;;;5054614;28;20192;-68
2022/09/24 07:08:33;;;;;;;20.23;12.80;;;10.50;99.90;;;;;;5054685;28;20184;-67
2022/09/24 07:11:02;;;;;;;15.20;11.17;;;10.50;99.90;;;;;;5054525;28;20204;-68
2022/09/24 07:13:30;;;;;;;20.23;11.60;;;10.60;99.90;;;;;;5054383;28;20223;-68
2022/09/24 07:16:00;;;;;;;18.60;13.03;;;10.70;99.90;;;;;;5054418;28;20192;-68
2022/09/24 07:18:29;;;;;;;16.47;12.27;;;10.80;99.90;;;;;;5054413;28;20188;-67
2022/09/24 07:20:58;;;;;;;12.50;10.03;;;10.80;99.90;;;;;;5053932;28;20207;-68
2022/09/24 07:23:28;;;;;;;12.95;9.10;;;10.90;99.90;;;;;;5054307;28;20200;-68
2022/09/24 07:25:57;;;;;;;12.32;9.25;;;11.10;99.90;;;;;;5054362;28;20203;-68
2022/09/24 07:28:26;;;;;;;11.50;8.98;;;11.10;99.90;;;;;;5054285;28;20215;-68
2022/09/24 07:30:58;;;;;;;11.95;9.25;;;11.20;99.90;;;;;;5054220;28;20199;-67
2022/09/24 07:33:28;;;;;;;9.90;8.65;;;11.30;99.90;;;;;;5054117;28;20793;-68
2022/09/24 07:35:56;;;;;;;15.20;10.88;;;11.40;99.90;;;;;;5054125;28;20203;-68
2022/09/24 07:38:25;;;;;;;13.93;12.32;;;11.40;99.90;;;;;;5053996;28;20670;-68
2022/09/24 07:40:58;;;;;;;12.18;8.85;;;11.50;99.90;;;;;;5052872;28;20203;-68
2022/09/24 07:43:27;;;;;;;13.30;9.60;;;11.70;99.90;;;;;;5053978;28;20176;-68
2022/09/24 07:45:56;;;;;;;13.50;10.13;;;11.80;99.90;;;;;;5053937;28;20687;-68
2022/09/24 07:48:25;;;;;;;11.77;10.43;;;12.00;99.90;;;;;;5053903;28;20195;-67
2022/09/24 07:50:54;;;;;;;14.25;11.93;;;12.10;99.90;;;;;;5053154;28;20211;-67
2022/09/24 07:53:23;;;;;;;12.02;9.30;;;12.20;99.90;;;;;;5052488;28;20220;-67
2022/09/24 07:55:52;;;;;;;10.13;8.82;;;12.40;99.90;;;;;;5053633;28;20207;-66
2022/09/24 07:58:22;;;;;;;13.50;9.07;;;12.50;99.90;;;;;;5053610;28;20568;-67
2022/09/24 08:00:51;;;;;;;10.57;9.25;;;12.60;99.90;;;;;;5053642;28;20660;-67
2022/09/24 08:03:20;;;;;;;13.35;9.40;;;12.70;99.90;;;;;;5053513;28;20285;-67
2022/09/24 08:05:49;;;;;;;14.32;10.07;;;12.90;99.90;;;;;;5053095;28;20203;-66
2022/09/24 08:08:19;;;;;;;13.90;9.38;;;13.00;99.90;;;;;;5053122;28;20200;-67
2022/09/24 08:10:48;;;;;;;11.82;9.60;;;13.10;99.90;;;;;;5053495;28;20196;-66
2022/09/24 08:13:16;;;;;;;13.65;10.52;;;13.30;99.90;;;;;;5053309;28;20224;-67
2022/09/24 08:15:46;;;;;;;14.15;9.70;;;13.30;99.90;;;;;;5053583;28;20219;-66
2022/09/24 08:18:15;;;;;;;16.92;10.07;;;13.40;99.90;;;;;;5053380;28;20195;-66
2022/09/24 08:20:44;;;;;;;13.23;9.43;;;13.40;99.90;;;;;;5053233;28;20191;-66
2022/09/24 08:23:13;;;;;;;11.07;8.75;;;13.70;99.90;;;;;;5053429;28;20203;-66
2022/09/24 08:25:41;;;;;;;14.20;9.90;;;13.80;99.90;;;;;;5053024;28;20234;-67
2022/09/24 08:28:11;;;;;;;15.77;10.52;;;13.90;99.90;;;;;;5053055;28;20203;-67
2022/09/24 08:30:40;;;;;;;10.80;9.68;;;13.90;99.90;;;;;;5053039;28;20187;-66
2022/09/24 08:33:10;;;;;;;13.05;9.77;;;13.90;99.90;;;;;;5052948;28;20196;-66
2022/09/24 08:35:39;;;;;;;16.75;11.85;;;14.00;99.90;;;;;;5052953;28;20700;-66
2022/09/24 08:38:08;;;;;;;12.32;9.68;;;14.10;99.90;;;;;;5052955;28;20198;-66
2022/09/24 08:40:40;;;;;;;11.95;8.82;;;14.30;99.90;;;;;;5052974;28;20191;-65
2022/09/24 08:43:21;;;;;;;11.07;8.88;;;14.40;99.90;;;;;;5052780;28;20200;-66
2022/09/24 08:48:48;;;;;;;13.27;9.63;;;14.60;99.90;;;;;;5027521;28;20206;-66
2022/09/24 08:51:18;;;;;;;12.57;9.10;;;14.70;99.90;;;;;;5052772;28;20180;-66
2022/09/24 08:53:53;;;;;;;13.02;8.73;;;14.70;99.90;;;;;;5052640;28;20680;-66
2022/09/24 08:56:26;;;;;;;13.98;9.60;;;14.70;99.90;;;;;;5052620;28;20200;-66
2022/09/24 08:58:59;;;;;;;42.53;31.42;;;14.70;99.90;;;;;;5052531;28;20212;-66
2022/09/24 09:01:36;;;;;;;36.25;25.85;;;14.80;99.90;;;;;;5051997;28;20195;-66
2022/09/24 09:04:22;;;;;;;14.95;11.02;;;14.90;99.90;;;;;;5052561;28;20223;-66
2022/09/24 09:07:05;;;;;;;11.65;9.93;;;15.00;99.90;;;;;;5055663;28;20192;-66
2022/09/24 09:09:43;;;;;;;11.20;9.02;;;15.10;99.90;;;;;;5057137;28;20188;-66
2022/09/24 09:12:15;;;;;;;11.63;8.82;;;15.20;99.90;;;;;;5056671;28;20206;-66
2022/09/24 09:14:50;;;;;;;15.02;9.40;;;15.40;99.90;;;;;;5056990;28;20223;-66
2022/09/24 09:17:31;;;;;;;15.02;13.07;;;15.50;99.90;;;;;;5052567;28;20196;-65
2022/09/24 09:20:04;;;;;;;17.15;12.75;;;15.70;99.90;;;;;;5052352;28;20187;-65
2022/09/24 09:22:39;;;;;;;11.07;9.07;;;16.00;99.90;;;;;;5052311;28;20176;-66
2022/09/24 09:25:19;;;;;;;13.10;9.07;;;15.90;99.90;;;;;;5051711;28;20226;-66
2022/09/24 09:27:52;;;;;;;14.63;10.25;;;16.00;99.90;;;;;;5052263;28;20644;-67
2022/09/24 09:30:21;;;;;;;10.98;9.10;;;16.00;99.90;;;;;;5052222;28;20200;-67
2022/09/24 09:33:04;;;;;;;14.68;9.57;;;16.00;99.90;;;;;;5052438;28;20195;-67
2022/09/24 09:35:42;;;;;;;14.55;10.63;;;16.00;99.90;;;;;;5051979;28;20223;-67
2022/09/24 09:38:22;;;;;;;13.00;9.77;;;16.00;99.90;;;;;;5052100;28;20188;-67
2022/09/24 09:40:58;;;;;;;13.07;9.98;;;16.20;99.90;;;;;;5051998;28;20204;-67
2022/09/24 09:43:28;;;;;;;11.57;9.45;;;16.20;99.90;;;;;;5052076;28;20175;-67
2022/09/24 09:46:07;;;;;;;13.13;11.10;;;16.20;99.90;;;;;;5052099;28;20206;-67
2022/09/24 09:48:44;;;;;;;14.10;10.85;;;16.20;99.90;;;;;;5091982;23;20187;-75
2022/09/24 09:51:19;;;;;;;15.90;11.13;;;16.10;99.90;;;;;;5030731;28;20584;-74
2022/09/24 09:53:58;;;;;;;15.80;13.10;;;16.10;99.90;;;;;;5032036;28;20220;-74
2022/09/24 09:56:29;;;;;;;13.45;10.55;;;16.10;99.90;;;;;;5031920;28;20240;-73
2022/09/24 09:59:07;;;;;;;16.23;12.10;;;16.00;99.90;;;;;;5032113;28;20540;-74
2022/09/24 10:01:39;;;;;;;14.90;12.48;;;16.00;99.90;;;;;;5032114;28;20188;-73
2022/09/24 10:04:28;;;;;;;13.90;11.20;;;16.00;99.90;;;;;;5030795;28;20227;-71
2022/09/24 10:07:07;;;;;;;14.30;12.25;;;15.90;99.90;;;;;;5032042;28;20560;-73
2022/09/24 10:09:36;;;;;;;17.25;11.32;;;16.00;99.90;;;;;;5032083;28;20185;-73
2022/09/24 10:12:14;;;;;;;16.58;11.23;;;16.00;99.90;;;;;;5031976;28;20197;-72
2022/09/24 10:14:43;;;;;;;12.68;11.00;;;16.00;99.90;;;;;;5035211;28;20220;-72
2022/09/24 10:17:17;;;;;;;13.90;10.70;;;16.00;99.90;;;;;;5035632;28;20193;-72
2022/09/24 10:19:46;;;;;;;16.08;10.63;;;16.00;99.90;;;;;;5035711;28;20185;-72
2022/09/24 10:22:20;;;;;;;13.77;11.02;;;15.90;99.90;;;;;;5035641;28;20641;-72
2022/09/24 10:24:51;;;;;;;14.82;11.32;;;15.80;99.90;;;;;;5035382;28;20278;-73
2022/09/24 10:27:28;;;;;;;13.50;11.15;;;15.80;99.90;;;;;;5035478;28;20584;-73
2022/09/24 10:32:47;;;;;;;14.18;10.02;;;15.80;99.90;;;;;;5035370;28;20200;-71
2022/09/24 10:35:23;;;;;;;13.80;10.23;;;15.90;99.90;;;;;;5035233;28;20599;-71
2022/09/24 10:37:55;;;;;;;15.57;9.90;;;15.90;99.90;;;;;;5035285;28;20557;-71
2022/09/24 10:40:28;;;;;;;14.93;11.48;;;15.90;99.90;;;;;;5035280;28;20189;-70
2022/09/24 10:43:02;;;;;;;18.15;11.57;;;15.90;99.90;;;;;;5035227;28;20613;-72
2022/09/24 10:46:11;;;;;;;14.02;10.68;;;15.90;99.90;;;;;;5035105;28;20248;-73
2022/09/24 10:48:44;;;;;;;15.18;11.07;;;15.90;99.90;;;;;;5034900;28;20204;-72
2022/09/24 10:51:23;;;;;;;15.82;10.80;;;16.10;99.90;;;;;;5034907;28;20208;-72
2022/09/24 10:54:17;;;;;;;15.10;11.32;;;16.20;99.90;;;;;;5034957;28;20216;-75
2022/09/24 10:56:50;;;;;;;15.93;12.00;;;16.10;99.90;;;;;;5034930;28;20223;-74
2022/09/24 10:59:38;;;;;;;21.23;15.45;;;16.10;99.90;;;;;;5034891;28;20537;-75
2022/09/24 11:02:52;;;;;;;25.63;17.25;;;16.10;99.90;;;;;;5034996;28;20667;-75
2022/09/24 11:05:22;;;;;;;17.05;12.35;;;16.20;99.90;;;;;;5034658;28;20212;-74
2022/09/24 11:08:06;;;;;;;14.40;11.90;;;16.20;99.90;;;;;;5034687;28;20656;-73
2022/09/24 11:11:08;;;;;;;17.63;12.07;;;16.20;99.90;;;;;;5034746;28;20641;-73
2022/09/24 11:13:47;;;;;;;13.55;10.68;;;16.30;99.90;;;;;;5033433;28;20652;-73
2022/09/24 11:16:37;;;;;;;16.42;11.23;;;16.30;99.90;;;;;;5034444;28;20247;-73
2022/09/24 11:19:17;;;;;;;17.05;11.30;;;16.50;99.90;;;;;;5034575;28;20633;-73
2022/09/24 11:22:06;;;;;;;17.38;11.93;;;16.50;99.90;;;;;;5050019;28;20184;-74
2022/09/24 11:25:03;;;;;;;13.07;10.48;;;16.60;99.90;;;;;;5033773;28;20589;-73
2022/09/24 11:27:48;;;;;;;13.43;10.40;;;16.60;99.90;;;;;;5034627;28;20578;-73
2022/09/24 11:30:19;;;;;;;13.10;10.50;;;16.60;99.90;;;;;;5034512;28;20204;-73
2022/09/24 11:33:07;;;;;;;14.00;11.02;;;16.70;99.90;;;;;;5034333;28;20556;-73
2022/09/24 11:35:54;;;;;;;12.32;10.27;;;16.70;99.90;;;;;;5034124;28;20220;-72
2022/09/24 11:38:30;;;;;;;13.25;10.55;;;16.70;99.90;;;;;;5033927;28;20196;-72
2022/09/24 11:41:28;;;;;;;16.63;12.82;;;16.80;99.90;;;;;;5034259;28;20225;-73
2022/09/24 11:44:35;;;;;;;15.65;13.10;;;17.00;99.90;;;;;;5033309;28;20697;-73
2022/09/24 11:47:18;;;;;;;14.95;11.18;;;17.00;99.90;;;;;;5010043;28;20204;-73
2022/09/24 11:50:02;;;;;;;12.50;10.02;;;17.20;99.90;;;;;;5033950;28;20214;-71
2022/09/24 11:52:36;;;;;;;11.93;9.85;;;17.10;99.90;;;;;;5033946;28;20189;-71
2022/09/24 11:55:19;;;;;;;11.63;10.05;;;17.20;99.90;;;;;;5033940;28;20212;-72
2022/09/24 11:57:53;;;;;;;12.32;10.20;;;17.20;99.90;;;;;;5033848;28;20217;-72
2022/09/24 12:00:26;;;;;;;16.23;9.80;;;17.10;99.90;;;;;;5031930;28;20659;-72
2022/09/24 12:02:58;;;;;;;12.95;10.73;;;17.00;99.90;;;;;;5033797;28;20200;-73
2022/09/24 12:05:31;;;;;;;33.25;23.80;;;16.90;99.90;;;;;;5033603;28;20212;-72
2022/09/24 12:08:06;;;;;;;12.23;10.73;;;16.90;99.90;;;;;;5033641;28;20193;-74
2022/09/24 12:10:39;;;;;;;16.02;11.73;;;17.10;99.60;;;;;;5033620;28;20206;-73
2022/09/24 12:13:17;;;;;;;13.00;11.65;;;17.10;99.90;;;;;;5033594;28;20192;-71
2022/09/24 12:15:52;;;;;;;11.40;9.00;;;17.20;99.80;;;;;;5033299;28;20216;-72
2022/09/24 12:18:24;;;;;;;16.05;9.55;;;17.20;98.80;;;;;;5033389;28;20215;-75
2022/09/24 12:21:00;;;;;;;14.32;9.55;;;17.30;98.40;;;;;;5033380;28;20192;-72
2022/09/24 12:23:32;;;;;;;17.25;10.60;;;17.20;98.70;;;;;;5033251;28;20195;-72
2022/09/24 12:26:04;;;;;;;15.13;9.88;;;17.30;98.30;;;;;;5033245;28;20653;-69
2022/09/24 12:34:26;;;;;;;10.35;9.18;;;17.40;98.70;;;;;;5033118;28;20221;-69
2022/09/24 12:37:02;;;;;;;11.50;8.43;;;17.40;99.00;;;;;;5032156;28;20589;-68
2022/09/24 12:39:38;;;;;;;13.52;9.80;;;17.40;99.40;;;;;;5033064;28;20193;-68
2022/09/24 12:42:09;;;;;;;12.35;8.30;;;17.70;97.60;;;;;;5033033;28;20184;-68
2022/09/24 12:44:44;;;;;;;12.48;8.60;;;17.70;97.70;;;;;;5032965;28;20216;-68
2022/09/24 12:47:20;;;;;;;9.18;8.00;;;17.60;97.50;;;;;;5032850;28;20191;-68
2022/09/24 12:49:53;;;;;;;12.13;8.18;;;17.60;97.60;;;;;;5032781;28;20566;-67
2022/09/24 12:52:26;;;;;;;13.15;8.45;;;17.50;97.00;;;;;;5032820;28;20196;-69
2022/09/24 12:54:59;;;;;;;10.90;8.48;;;17.40;97.10;;;;;;5032713;28;20212;-69
2022/09/24 12:57:32;;;;;;;10.32;8.23;;;17.40;96.90;;;;;;5032717;28;20230;-68
2022/09/24 13:00:03;;;;;;;11.75;8.38;;;17.40;98.30;;;;;;5032689;28;20188;-68
2022/09/24 13:02:45;;;;;;;12.20;8.85;;;17.30;98.00;;;;;;5032704;28;20188;-69
2022/09/24 13:05:27;;;;;;;10.23;8.50;;;17.20;97.80;;;;;;5032564;28;20216;-69
2022/09/24 13:07:59;;;;;;;9.98;8.40;;;17.20;98.20;;;;;;5032651;28;20180;-68
2022/09/24 13:10:30;;;;;;;13.40;9.48;;;17.20;98.90;;;;;;5032603;28;20195;-68
2022/09/24 13:13:00;;;;;;;11.15;8.93;;;17.40;98.50;;;;;;5032595;28;20196;-68
2022/09/24 13:15:34;;;;;;;17.60;10.18;;;17.50;98.20;;;;;;5031331;28;20681;-67
2022/09/24 13:18:22;;;;;;;12.50;8.45;;;17.50;98.20;;;;;;5032446;28;20207;-68
2022/09/24 13:21:00;;;;;;;13.55;9.27;;;17.50;98.60;;;;;;5032440;28;20672;-67
2022/09/24 13:23:45;;;;;;;12.73;9.07;;;17.50;98.30;;;;;;5032419;28;20195;-67
2022/09/24 13:26:27;;;;;;;11.98;9.32;;;17.50;98.90;;;;;;5032377;28;20180;-68
2022/09/24 13:28:58;;;;;;;13.90;9.50;;;17.60;98.70;;;;;;5032348;28;20180;-67